Latest Coastal Weather Observations for East Sale Airport

IDV60701

Issued at 1:12 am EST Thursday 3 September 2026 (issued every 10 minutes, with the page automatically refreshed every 10 minutes)

About coastal observations | Map of coastal stations | Coastal observations for VIC | Marine services | Other Formats
Station Details ID: 085314 Name: EAST SALE AIRPORT Lat: -38.10 Lon: 147.14 Height: 5.3 m
Data from the previous 72 hours. | See also: Recent months at East Sale Airport
Date/Time
EST
Wind Sea
Height
m
Swell Vis
km
Cloud Weather Temp
°C
Press
MSL
hPa
Rain since
9am
mm
Dir  Spd
kts
Gust
kts
Height
m
Period
s
Dir
03/01:00am NNW 6 7 - - - - 10 Partly cloudy - 8.0 1009.4 0.0
03/12:30am NNW 5 6 - - - - 10 Cloudy - 7.9 1009.9 0.0
03/12:00am NW 5 6 - - - - 10 Partly cloudy - 8.9 1010.2 0.0
 
Date/Time
EST
Wind Sea
Height
m
Swell Vis
km
Cloud Weather Temp
°C
Press
MSL
hPa
Rain since
9am
mm
Dir  Spd
kts
Gust
kts
Height
m
Period
s
Dir
02/11:30pm NW 4 5 - - - - 10 - - 7.8 1010.2 0.0
02/11:00pm NW 4 5 - - - - 10 - - 7.8 1010.6 0.0
02/10:30pm NW 3 4 - - - - 10 Mostly clear - 8.3 1010.9 0.0
02/10:00pm NW 4 5 - - - - 10 Partly cloudy - 8.9 1011.2 0.0
02/09:30pm NNW 5 6 - - - - 10 - - 9.3 1011.3 0.0
02/09:00pm N 5 7 - - - - 10 Mostly clear - 9.6 1011.5 0.0
02/08:30pm NNE 5 6 - - - - 10 Mostly clear - 10.3 1011.4 0.0
02/08:00pm NNE 5 7 - - - - 10 Mostly clear - 10.5 1011.2 0.0
02/07:30pm NE 8 9 - - - - 10 Mostly clear - 11.4 1011.2 0.0
02/07:00pm NE 7 9 - - - - 10 Mostly clear - 11.2 1011.2 0.0
02/06:30pm NE 7 8 - - - - 10 Mostly clear - 11.9 1011.1 0.0
02/06:00pm NE 8 9 - - - - 10 Mostly clear - 12.4 1011.0 0.0
02/05:30pm ENE 8 9 - - - - 10 Partly cloudy - 13.6 1010.9 0.0
02/05:00pm E 7 9 - - - - 10 Partly cloudy - 14.4 1010.8 0.0
02/04:30pm E 10 11 - - - - 10 Partly cloudy - 15.8 1010.8 0.0
02/04:00pm WNW 4 8 - - - - 10 Mostly clear - 18.1 1010.9 0.0
02/03:30pm W 7 9 - - - - 10 Mostly clear - 17.4 1010.6 0.0
02/03:00pm W 7 9 - - - - 10 Mostly clear - 17.6 1010.7 0.0
02/02:30pm W 7 11 - - - - 10 Mostly clear - 17.5 1010.9 0.0
02/02:00pm W 9 13 - - - - 10 Partly cloudy - 17.1 1011.1 0.0
02/01:30pm WSW 11 18 - - - - 10 Partly cloudy - 16.9 1011.5 0.0
02/01:00pm W 12 16 - - - - 10 Partly cloudy - 16.9 1011.8 0.0
02/12:30pm W 13 18 - - - - 10 Mostly clear - 16.9 1012.1 0.0
02/12:00pm W 15 22 - - - - 10 Mostly clear - 16.2 1012.4 0.0
02/11:30am W 14 21 - - - - 10 Mostly clear - 16.4 1012.8 0.0
02/11:00am W 13 18 - - - - 10 Mostly clear - 16.3 1013.3 0.0
02/10:30am W 14 19 - - - - 10 Mostly clear - 15.9 1013.5 0.0
02/10:00am W 14 21 - - - - 10 Mostly clear - 15.8 1013.6 0.0
02/09:30am WSW 18 26 - - - - 10 - - 15.1 1013.5 0.0
02/09:00am WSW 15 21 - - - - 10 Mostly clear - 15.0 1013.5 0.0
02/08:30am WSW 13 20 - - - - 10 Partly cloudy - 15.0 1013.5 0.0
02/08:00am W 11 16 - - - - 10 Mostly clear - 14.4 1013.2 0.0
02/07:30am WSW 13 18 - - - - 10 Mostly clear - 14.2 1012.7 0.0
02/07:00am WSW 10 13 - - - - 10 Partly cloudy - 15.1 1012.3 0.0
02/06:30am WSW 11 15 - - - - 10 Partly cloudy - 15.4 1011.9 0.0
02/06:00am WSW 10 15 - - - - 10 Cloudy - 15.5 1011.6 0.0
02/05:30am W 7 9 - - - - 10 Partly cloudy - 15.2 1011.2 0.0
02/05:00am W 8 13 - - - - 10 Partly cloudy - 15.4 1011.1 0.0
02/04:30am W 9 12 - - - - 10 Partly cloudy - 15.4 1010.9 0.0
02/04:00am WSW 8 10 - - - - 10 Cloudy - 14.8 1010.6 0.0
02/03:30am SW 6 7 - - - - 10 Cloudy - 14.5 1010.6 0.0
02/03:00am SW 6 8 - - - - 10 Cloudy - 14.4 1010.6 0.0
02/02:30am WSW 7 9 - - - - 10 Partly cloudy - 15.0 1010.8 0.0
02/02:00am WSW 9 11 - - - - 10 Partly cloudy - 15.4 1011.0 0.0
02/01:30am SW 7 9 - - - - 10 Partly cloudy - 15.5 1010.9 0.0
02/01:00am NW 5 8 - - - - 10 Partly cloudy - 16.4 1010.9 0.0
02/12:30am NW 7 9 - - - - 10 Cloudy - 16.9 1011.3 0.0
02/12:00am NW 12 15 - - - - 10 Cloudy - 18.2 1011.5 0.0
 
Date/Time
EST
Wind Sea
Height
m
Swell Vis
km
Cloud Weather Temp
°C
Press
MSL
hPa
Rain since
9am
mm
Dir  Spd
kts
Gust
kts
Height
m
Period
s
Dir
01/11:30pm WNW 13 19 - - - - 10 Cloudy - 19.0 1011.2 0.0
01/11:00pm WNW 11 17 - - - - 10 Mostly clear - 18.8 1011.4 0.0
01/10:30pm NW 7 10 - - - - 10 Partly cloudy - 17.2 1011.5 0.0
01/10:00pm NNW 11 15 - - - - 10 Cloudy - 17.7 1011.5 0.0
01/09:30pm NNW 10 13 - - - - 10 Cloudy - 18.2 1011.8 0.0
01/09:00pm NNW 14 20 - - - - 10 Cloudy - 18.3 1011.8 0.0
01/08:30pm NNW 10 13 - - - - 10 - - 17.1 1012.1 0.0
01/08:00pm NNW 9 12 - - - - 10 - - 17.1 1012.5 0.0
01/07:30pm NNW 10 12 - - - - 10 - - 17.3 1013.0 0.0
01/07:00pm NW 10 12 - - - - 10 - - 17.8 1013.6 0.0
01/06:30pm WNW 9 13 - - - - 10 - - 18.5 1013.4 0.0
01/06:00pm NW 9 11 - - - - 10 Mostly cloudy - 18.5 1013.0 0.0
01/05:30pm WNW 16 23 - - - - 10 - - 20.2 1012.4 0.0
01/05:00pm WNW 18 23 - - - - 10 - - 21.0 1012.1 0.0
01/04:30pm WNW 16 22 - - - - 10 - - 21.3 1012.0 0.0
01/04:00pm WNW 16 21 - - - - 10 - - 22.0 1012.2 0.0
01/03:30pm NW 17 25 - - - - 10 - - 22.1 1012.1 0.0
01/03:00pm NW 16 21 - - - - 10 - - 22.1 1012.8 0.0
01/02:30pm NW 17 21 - - - - 10 - - 22.5 1013.1 0.0
01/02:00pm NW 19 26 - - - - 10 - - 22.6 1013.1 0.0
01/01:30pm NW 22 29 - - - - 10 - - 23.3 1013.5 0.0
01/01:00pm NW 20 27 - - - - 10 Mostly clear - 23.3 1014.0 0.0
01/12:30pm NW 16 24 - - - - 10 - - 22.6 1015.1 0.0
01/12:21pm NW 15 23 - - - - 10 - - 22.4 1015.5 0.0
01/12:11pm NNW 9 18 - - - - 10 - - 22.1 1015.8 0.0
01/12:00pm NNW 3 6 - - - - 10 - - 20.6 1015.9 0.0
01/11:30am NNE 3 6 - - - - 10 - - 19.7 1016.6 0.0
01/11:00am ENE 9 12 - - - - 10 - - 18.2 1017.1 0.0
01/10:30am NE 6 8 - - - - 10 - - 16.0 1018.0 0.0
01/10:00am N 5 7 - - - - 10 - - 13.9 1018.9 0.0
01/09:30am N 4 6 - - - - 10 - - 11.5 1019.4 0.0
01/09:00am N 5 8 - - - - 10 - - 9.3 1020.2 0.2
01/08:30am WNW 4 6 - - - - 10 - Fog 7.9 1020.6 0.2
01/08:00am NW 2 5 - - - - 10 - - 6.7 1020.8 0.2
01/07:42am CALM 0 4 - - - - 0.8 Mostly clear Fog 5.4 1021.0 0.2
01/07:30am WSW 2 4 - - - - 0.6 Mostly clear Fog 4.6 1021.2 0.2
01/07:27am WSW 2 4 - - - - 0.6 Partly cloudy Fog 4.3 1021.3 0.2
01/07:00am W 3 5 - - - - 0.5 Cloudy - 3.5 1021.0 0.2
01/06:44am W 6 8 - - - - 0.2 Cloudy - 3.5 1021.1 0.2
01/06:30am NNW 3 5 - - - - 0.1 Cloudy - 3.3 1020.8 0.2
01/06:00am NW 6 8 - - - - 0.5 Cloudy - 3.7 1021.2 0.0
01/05:30am NNW 6 7 - - - - 0.5 Cloudy - 3.9 1021.6 0.0
01/05:21am NW 5 6 - - - - 0.6 Cloudy - 4.1 1021.6 0.0
01/05:03am NNW 5 6 - - - - 0.1 Cloudy - 4.5 1021.5 0.0
01/05:00am NNW 5 6 - - - - 0.1 Cloudy - 4.7 1021.5 0.0
01/04:46am NW 4 5 - - - - 0.1 Cloudy - 5.1 1021.6 0.0
01/04:30am NW 5 6 - - - - 0.1 Cloudy - 5.3 1021.8 0.0
01/04:21am WNW 4 6 - - - - 0.1 Cloudy - 5.5 1022.0 0.0
01/04:11am NW 5 6 - - - - 0.2 Cloudy - 5.5 1022.1 0.0
01/04:07am NW 5 6 - - - - 0.2 Cloudy - 5.4 1022.1 0.0
01/04:00am NW 5 6 - - - - 0.1 Cloudy - 5.4 1022.2 0.0
01/03:30am WNW 4 6 - - - - 0.2 Cloudy - 5.2 1022.4 0.0
01/03:06am NW 5 7 - - - - 0.2 Cloudy - 4.8 1022.5 0.0
01/03:00am NW 5 6 - - - - 0.2 Cloudy - 4.7 1022.6 0.0
01/02:30am NW 4 5 - - - - 0.5 Cloudy - 4.7 1023.1 0.0
01/02:00am NNW 5 6 - - - - 0.1 Cloudy - 5.4 1023.9 0.0
01/01:30am N 4 5 - - - - 0.1 Cloudy - 5.2 1024.5 0.0
01/01:00am CALM 0 0 - - - - 0.2 Cloudy - 5.2 1024.8 0.0
01/12:30am CALM 0 0 - - - - 0.5 Cloudy - 4.9 1025.3 0.0
01/12:00am N 1 3 - - - - 0.2 Partly cloudy - 6.5 1025.7 0.0
 
Date/Time
EST
Wind Sea
Height
m
Swell Vis
km
Cloud Weather Temp
°C
Press
MSL
hPa
Rain since
9am
mm
Dir  Spd
kts
Gust
kts
Height
m
Period
s
Dir
31/11:49pm N 3 4 - - - - 0.8 Partly cloudy - 7.3 1025.9 0.0
31/11:45pm N 3 4 - - - - 2 Partly cloudy - 7.4 1025.9 0.0
31/11:42pm N 3 4 - - - - 4 Partly cloudy - 7.4 1026.0 0.0
31/11:30pm N 3 4 - - - - 10 Mostly clear - 7.7 1026.1 0.0
31/11:00pm CALM 0 0 - - - - 0.8 - - 6.9 1026.4 0.0
31/10:30pm NNE 3 4 - - - - 6 - - 8.0 1026.7 0.0
31/10:03pm NNE 4 5 - - - - 5 - - 8.4 1027.1 0.0
31/10:00pm NNE 4 5 - - - - 10 - - 8.5 1027.1 0.0
31/09:30pm NNE 4 6 - - - - 10 - - 9.1 1027.2 0.0
31/09:00pm NNE 4 6 - - - - 10 - - 9.3 1027.6 0.0
31/08:30pm ENE 4 6 - - - - 10 - - 9.9 1027.7 0.0
31/08:00pm ENE 5 6 - - - - 10 - - 9.6 1027.9 0.0
31/07:30pm E 6 6 - - - - 10 - - 9.7 1028.1 0.0
31/07:00pm E 6 6 - - - - 10 - - 9.1 1028.2 0.0
31/06:30pm ESE 7 8 - - - - 10 - - 10.1 1028.1 0.0
31/06:00pm ESE 7 8 - - - - 10 - - 11.2 1028.0 0.0
31/05:30pm SE 7 8 - - - - 10 - - 13.2 1027.8 0.0
31/05:00pm ESE 7 9 - - - - 10 - - 15.1 1027.5 0.0
31/04:30pm E 8 9 - - - - 10 - - 16.2 1027.4 0.0
31/04:00pm ESE 8 9 - - - - 10 - - 16.6 1027.6 0.0
31/03:30pm E 7 9 - - - - 10 - - 17.3 1027.8 0.0
31/03:00pm ENE 6 8 - - - - 10 - - 17.5 1028.1 0.0
31/02:30pm E 7 9 - - - - 10 - - 17.6 1028.4 0.0
31/02:00pm WNW 4 7 - - - - 10 - - 18.4 1028.8 0.0
31/01:30pm NNE 5 9 - - - - 10 - - 17.9 1029.1 0.0
31/01:00pm NW 5 8 - - - - 10 - - 16.8 1029.7 0.0
31/12:30pm NW 6 9 - - - - 10 - - 16.3 1030.1 0.0
31/12:00pm W 5 9 - - - - 10 - - 16.0 1030.6 0.0
31/11:30am W 7 9 - - - - 10 - - 15.0 1031.0 0.0
31/11:00am W 7 9 - - - - 10 - - 14.7 1031.4 0.0
31/10:30am W 8 11 - - - - 10 - - 14.0 1031.5 0.0
31/10:00am WSW 10 13 - - - - 10 - - 12.9 1031.5 0.0
31/09:30am W 9 15 - - - - 10 Mostly clear - 12.2 1031.7 0.0
31/09:00am NW 6 8 - - - - 10 - - 10.6 1031.9 0.0
31/08:30am NNW 7 8 - - - - 10 - - 8.7 1031.9 0.0
31/08:00am NNW 8 9 - - - - 10 - - 7.0 1031.9 0.0
31/07:30am N 5 7 - - - - 10 - - 4.9 1031.8 0.0
31/07:00am NNW 7 8 - - - - 10 - - 4.5 1031.5 0.0
31/06:30am NNW 8 8 - - - - 10 - - 4.6 1031.2 0.0
31/06:00am NNW 7 7 - - - - 10 - - 4.5 1031.1 0.0
31/05:30am NNW 6 8 - - - - 10 - - 4.3 1031.0 0.0
31/05:00am N 5 7 - - - - 9 - - 3.8 1030.8 0.0
31/04:30am NNW 7 8 - - - - 10 - - 4.4 1030.9 0.0
31/04:00am NNW 6 7 - - - - 10 - - 4.1 1030.9 0.0
31/03:30am NNW 5 6 - - - - 10 - - 5.1 1031.0 0.0
31/03:00am NNW 3 6 - - - - 10 - - 5.4 1031.2 0.0
31/02:30am NNW 5 6 - - - - 10 - - 6.3 1031.2 0.0
31/02:16am N 3 4 - - - - 10 - - 5.1 1031.2 0.0
31/02:03am N 4 4 - - - - 6 - - 4.7 1031.4 0.0
31/02:00am N 4 4 - - - - 7 - - 4.9 1031.4 0.0
31/01:30am NW 4 5 - - - - 10 - - 6.4 1031.5 0.0

Other formats

Comma delimited format used in spreadsheet applications
http://www.bom.gov.au/fwo/IDV60701/IDV60701.95907.axf

JavaScript Object Notation format (JSON) in row-major order
http://www.bom.gov.au/fwo/IDV60701/IDV60701.95907.json

Data quality

Most of these data are generated automatically and are frequently updated. Quality checks on data are not normally performed. It is possible for incorrect values to appear. Refer to information at About Latest Weather Observations and please check the disclaimer before using these data.